Time;durP1;ratioP1;P1;durP2;ratioP2;P2;SDS_P1;SDS_P2;PMS_P1;PMS_P2;Temp;Humidity;BMP_temperature;BMP_pressure;BME280_temperature;BME280_humidity;BME280_pressure;Samples;Min_cycle;Max_cycle;Signal;HPM_P1;HPM_P2
2023/05/12 00:02:58;;;;;;;6.75;4.32;;;;;;;;;;6305206;22;20279;-94
2023/05/12 00:06:03;;;;;;;11.25;4.47;;;;;;;;;;6323525;22;20216;-93
2023/05/12 00:09:08;;;;;;;6.88;4.10;;;;;;;;;;6322253;22;20161;-92
2023/05/12 00:12:14;;;;;;;8.07;4.72;;;;;;;;;;6323384;22;20160;-93
2023/05/12 00:15:21;;;;;;;6.80;4.00;;;;;;;;;;6323426;22;20196;-94
2023/05/12 00:18:39;;;;;;;7.65;4.20;;;;;;;;;;6305738;22;20166;-93
2023/05/12 00:21:45;;;;;;;9.73;4.40;;;;;;;;;;6323889;22;20189;-91
2023/05/12 00:24:50;;;;;;;8.15;4.55;;;;;;;;;;6322585;22;20165;-91
2023/05/12 00:27:56;;;;;;;8.60;4.43;;;;;;;;;;6322394;22;20153;-93
2023/05/12 00:31:04;;;;;;;7.78;4.60;;;;;;;;;;6304969;22;20168;-91
2023/05/12 00:34:09;;;;;;;9.13;4.40;;;;;;;;;;6322180;22;20165;-93
2023/05/12 00:37:14;;;;;;;10.05;4.68;;;;;;;;;;6320699;22;20165;-92
2023/05/12 00:40:20;;;;;;;9.02;4.53;;;;;;;;;;6321458;22;20172;-94
2023/05/12 00:43:26;;;;;;;6.38;4.63;;;;;;;;;;6321985;22;20176;-93
2023/05/12 00:47:01;;;;;;;7.55;4.55;;;;;;;;;;6321974;22;20193;-92
2023/05/12 00:50:09;;;;;;;7.65;4.18;;;;;;;;;;6322940;22;20172;-92
2023/05/12 00:53:15;;;;;;;8.32;4.40;;;;;;;;;;6322425;22;20157;-93
2023/05/12 00:56:20;;;;;;;8.70;4.45;;;;;;;;;;6324451;22;20221;-92
2023/05/12 00:59:27;;;;;;;6.43;4.13;;;;;;;;;;6306187;22;20235;-94
2023/05/12 01:02:32;;;;;;;10.13;4.15;;;;;;;;;;6323964;22;20168;-92
2023/05/12 01:05:43;;;;;;;8.50;4.18;;;;;;;;;;6323769;22;20170;-92
2023/05/12 01:08:49;;;;;;;7.03;3.67;;;;;;;;;;6323831;22;20207;-92
2023/05/12 01:11:55;;;;;;;10.18;4.10;;;;;;;;;;6308163;22;20169;-91
2023/05/12 01:15:01;;;;;;;8.32;4.63;;;;;;;;;;6326748;22;20169;-93
2023/05/12 01:18:12;;;;;;;6.32;4.28;;;;;;;;;;6324290;22;20501;-93
2023/05/12 01:21:21;;;;;;;9.93;3.92;;;;;;;;;;6305237;22;20169;-92
2023/05/12 01:24:28;;;;;;;7.00;4.32;;;;;;;;;;6323350;22;20228;-92
2023/05/12 01:27:35;;;;;;;6.70;4.13;;;;;;;;;;6321758;22;20180;-92
2023/05/12 01:30:42;;;;;;;7.68;4.05;;;;;;;;;;6323820;22;20184;-92
2023/05/12 01:33:50;;;;;;;9.02;3.88;;;;;;;;;;6323513;22;20169;-91
2023/05/12 01:37:07;;;;;;;7.13;4.57;;;;;;;;;;6305981;22;20144;-92
2023/05/12 01:40:13;;;;;;;7.20;4.47;;;;;;;;;;6322836;22;20204;-92
2023/05/12 01:43:20;;;;;;;7.88;4.20;;;;;;;;;;6324284;22;20184;-91
2023/05/12 01:46:26;;;;;;;9.05;4.30;;;;;;;;;;6324900;22;20169;-93
2023/05/12 01:49:34;;;;;;;14.18;4.40;;;;;;;;;;6305719;22;20165;-91
2023/05/12 01:52:40;;;;;;;8.05;4.10;;;;;;;;;;6323272;22;20172;-93
2023/05/12 01:55:49;;;;;;;6.15;3.72;;;;;;;;;;6303553;22;20161;-92
2023/05/12 01:58:57;;;;;;;6.60;4.18;;;;;;;;;;6303431;22;20172;-94
2023/05/12 02:02:02;;;;;;;9.40;4.10;;;;;;;;;;6323010;22;20152;-93
2023/05/12 02:05:10;;;;;;;7.80;4.05;;;;;;;;;;6321182;22;20244;-92
2023/05/12 02:08:16;;;;;;;8.00;4.00;;;;;;;;;;6323769;22;20156;-93
2023/05/12 02:11:21;;;;;;;7.18;3.63;;;;;;;;;;6323187;22;20181;-94
2023/05/12 02:14:32;;;;;;;7.88;4.35;;;;;;;;;;6324820;22;20220;-90
2023/05/12 02:21:27;;;;;;;8.27;4.03;;;;;;;;;;6325361;22;20200;-94
2023/05/12 02:24:32;;;;;;;11.73;5.38;;;;;;;;;;6307046;22;20197;-93
2023/05/12 02:27:38;;;;;;;5.90;4.25;;;;;;;;;;6324542;22;20184;-90
2023/05/12 02:30:48;;;;;;;6.90;4.25;;;;;;;;;;6325963;22;20169;-93
2023/05/12 02:33:54;;;;;;;7.97;4.07;;;;;;;;;;6326005;22;20161;-93
2023/05/12 02:36:59;;;;;;;8.73;4.13;;;;;;;;;;6326570;22;20212;-93
2023/05/12 02:40:04;;;;;;;8.38;4.38;;;;;;;;;;6326387;22;20169;-93
2023/05/12 02:43:10;;;;;;;9.35;4.50;;;;;;;;;;6325766;22;20241;-92
2023/05/12 02:46:23;;;;;;;8.57;4.47;;;;;;;;;;6326452;22;20257;-94
2023/05/12 02:49:29;;;;;;;6.78;4.30;;;;;;;;;;6325109;22;20153;-92
2023/05/12 02:52:34;;;;;;;15.85;4.78;;;;;;;;;;6326448;22;20157;-94
2023/05/12 02:55:40;;;;;;;8.35;4.68;;;;;;;;;;6326300;22;20185;-94
2023/05/12 02:58:46;;;;;;;8.55;4.68;;;;;;;;;;6307740;22;20165;-92
2023/05/12 03:01:53;;;;;;;9.10;5.28;;;;;;;;;;6323412;22;20169;-94
2023/05/12 03:04:59;;;;;;;6.28;4.57;;;;;;;;;;6323382;22;20219;-92
2023/05/12 03:08:05;;;;;;;12.25;4.55;;;;;;;;;;6323009;22;20165;-92
2023/05/12 03:11:10;;;;;;;9.93;4.53;;;;;;;;;;6305096;22;20184;-94
2023/05/12 03:14:16;;;;;;;17.75;4.78;;;;;;;;;;6308160;22;20169;-92
2023/05/12 03:17:48;;;;;;;9.73;4.85;;;;;;;;;;6306075;22;20165;-90
2023/05/12 03:20:56;;;;;;;8.07;4.25;;;;;;;;;;6308288;22;20168;-94
2023/05/12 03:24:02;;;;;;;8.23;4.68;;;;;;;;;;6326665;22;20193;-91
2023/05/12 03:27:11;;;;;;;8.70;4.63;;;;;;;;;;6327705;22;20204;-91
2023/05/12 03:30:16;;;;;;;10.40;4.82;;;;;;;;;;6328066;22;20169;-90
2023/05/12 03:33:22;;;;;;;6.10;4.30;;;;;;;;;;6309557;22;20165;-92
2023/05/12 03:36:30;;;;;;;9.32;4.63;;;;;;;;;;6334079;22;20161;-92
2023/05/12 03:39:35;;;;;;;6.97;4.72;;;;;;;;;;6328062;22;20165;-92
2023/05/12 03:42:41;;;;;;;8.05;4.65;;;;;;;;;;6326267;22;20244;-91
2023/05/12 03:46:18;;;;;;;8.32;4.53;;;;;;;;;;6327121;22;20604;-93
2023/05/12 03:49:25;;;;;;;7.55;4.50;;;;;;;;;;6329600;22;20165;-93
2023/05/12 03:52:33;;;;;;;7.35;4.57;;;;;;;;;;6325865;22;20213;-89
2023/05/12 03:55:40;;;;;;;12.13;5.28;;;;;;;;;;6326830;22;20164;-91
2023/05/12 03:58:46;;;;;;;6.28;4.57;;;;;;;;;;6327695;22;20192;-91
2023/05/12 04:05:33;;;;;;;7.22;4.45;;;;;;;;;;6326126;22;20181;-91
2023/05/12 04:08:40;;;;;;;12.00;4.30;;;;;;;;;;6323938;22;20179;-92
2023/05/12 04:11:46;;;;;;;7.30;4.50;;;;;;;;;;6324026;22;20168;-93
2023/05/12 04:14:51;;;;;;;16.08;4.65;;;;;;;;;;6325580;22;20180;-92
2023/05/12 04:17:57;;;;;;;10.18;4.75;;;;;;;;;;6323585;22;20196;-92
2023/05/12 04:21:03;;;;;;;11.85;4.90;;;;;;;;;;6325344;22;20180;-93
2023/05/12 04:24:11;;;;;;;10.13;4.80;;;;;;;;;;6323484;22;20200;-91
2023/05/12 04:27:17;;;;;;;10.50;4.57;;;;;;;;;;6307811;22;20153;-90
2023/05/12 04:30:23;;;;;;;8.27;4.80;;;;;;;;;;6323151;22;20165;-89
2023/05/12 04:33:30;;;;;;;9.48;5.10;;;;;;;;;;6325786;22;20173;-92
2023/05/12 04:36:36;;;;;;;17.40;6.13;;;;;;;;;;6306563;22;20148;-91
2023/05/12 04:39:45;;;;;;;10.63;5.20;;;;;;;;;;6323401;22;20161;-89
2023/05/12 04:42:50;;;;;;;6.45;4.30;;;;;;;;;;6325329;22;20161;-90
2023/05/12 04:46:14;;;;;;;9.65;4.93;;;;;;;;;;6327039;22;20244;-92
2023/05/12 04:52:40;;;;;;;10.60;5.45;;;;;;;;;;6324198;22;20195;-90
2023/05/12 04:55:48;;;;;;;8.05;5.47;;;;;;;;;;6307426;22;20176;-90
2023/05/12 04:58:54;;;;;;;12.25;5.72;;;;;;;;;;6325935;22;20164;-95
2023/05/12 05:02:00;;;;;;;11.95;5.93;;;;;;;;;;6307883;22;20168;-93
2023/05/12 05:05:06;;;;;;;13.60;5.68;;;;;;;;;;6324326;22;20189;-90
2023/05/12 05:08:11;;;;;;;13.35;5.88;;;;;;;;;;6325289;22;20168;-93
2023/05/12 05:11:18;;;;;;;9.82;5.72;;;;;;;;;;6325346;22;20320;-91
2023/05/12 05:14:28;;;;;;;9.57;5.40;;;;;;;;;;6326494;22;20180;-92
2023/05/12 05:17:58;;;;;;;10.95;5.40;;;;;;;;;;6324541;22;20244;-93
2023/05/12 05:21:04;;;;;;;10.52;5.53;;;;;;;;;;6327768;22;20172;-93
2023/05/12 05:24:21;;;;;;;9.60;5.63;;;;;;;;;;6325028;22;20200;-93
2023/05/12 05:27:30;;;;;;;9.98;4.90;;;;;;;;;;6326061;22;20173;-93
2023/05/12 05:30:45;;;;;;;10.63;5.28;;;;;;;;;;6327885;22;20165;-92
2023/05/12 05:33:53;;;;;;;9.38;4.97;;;;;;;;;;6327409;22;20169;-90
